Terminal Aerodrome Forecast
Issued by NWS

Home | Current Version | Previous Version | Text Only | Print | Product List | Glossary On
Versions: 1 2 3 4 5 6 7 8 9 10 11 12 13 14
757
FTUS46 KMTR 162336
TAFSTS
TAF
KSTS 162336Z 1700/1724 17005KT 3SM FU FEW040 BKN250
     FM170600 00000KT 3SM FU SCT120 BKN250
     FM171800 VRB03KT 5SM FU SCT250
     FM172100 19003KT 6SM FU SKC=

USA.gov is the U.S. government's official web portal to all federal, state and local government web resources and services.